Time;durP1;ratioP1;P1;durP2;ratioP2;P2;SDS_P1;SDS_P2;PMS_P1;PMS_P2;Temp;Humidity;BMP_temperature;BMP_pressure;BME280_temperature;BME280_humidity;BME280_pressure;Samples;Min_cycle;Max_cycle;Signal;HPM_P1;HPM_P2
2020/12/26 00:01:13;;;;;;;15.27;12.27;;;-0.10;99.90;;;;;;5042481;28;20178;-73
2020/12/26 00:03:39;;;;;;;16.53;13.30;;;-0.10;99.90;;;;;;5043202;28;20196;-74
2020/12/26 00:06:04;;;;;;;16.33;12.60;;;-0.10;99.90;;;;;;5040726;28;20200;-73
2020/12/26 00:08:32;;;;;;;15.50;11.97;;;-0.10;99.90;;;;;;5036688;28;20215;-74
2020/12/26 00:10:58;;;;;;;17.00;13.27;;;-0.10;99.90;;;;;;5038712;28;20290;-73
2020/12/26 00:13:24;;;;;;;16.67;12.60;;;-0.10;99.90;;;;;;5040304;28;20213;-74
2020/12/26 00:15:49;;;;;;;16.63;12.33;;;-0.10;99.90;;;;;;5044266;28;20254;-72
2020/12/26 00:18:15;;;;;;;17.07;13.33;;;-0.10;99.90;;;;;;5046205;28;20182;-73
2020/12/26 00:20:41;;;;;;;17.10;12.63;;;-0.10;99.90;;;;;;5041347;28;20259;-72
2020/12/26 00:23:06;;;;;;;16.80;13.03;;;0.00;99.90;;;;;;5043757;28;20203;-73
2020/12/26 00:25:32;;;;;;;23.60;12.63;;;0.00;99.90;;;;;;5039579;28;20188;-73
2020/12/26 00:27:58;;;;;;;14.93;12.27;;;0.00;99.90;;;;;;5037028;28;20262;-73
2020/12/26 00:30:23;;;;;;;15.50;12.40;;;0.00;99.90;;;;;;5036006;28;20511;-73
2020/12/26 00:32:49;;;;;;;17.00;13.73;;;0.00;99.90;;;;;;5046130;28;20599;-73
2020/12/26 00:35:14;;;;;;;15.50;12.87;;;0.00;99.90;;;;;;5047292;28;20192;-74
2020/12/26 00:37:40;;;;;;;16.20;13.33;;;-0.10;99.90;;;;;;5044667;28;20188;-73
2020/12/26 00:40:05;;;;;;;17.63;13.20;;;-0.10;99.90;;;;;;5043995;28;20182;-73
2020/12/26 00:42:31;;;;;;;17.83;13.60;;;-0.20;99.90;;;;;;5042443;28;20314;-73
2020/12/26 00:44:57;;;;;;;17.90;13.53;;;-0.30;99.90;;;;;;5042122;28;20266;-72
2020/12/26 00:47:22;;;;;;;16.70;13.63;;;-0.40;99.90;;;;;;5042886;28;20207;-74
2020/12/26 00:49:48;;;;;;;19.77;13.60;;;-0.40;99.90;;;;;;5048485;28;20284;-71
2020/12/26 00:52:13;;;;;;;18.80;14.43;;;-0.40;99.90;;;;;;5048105;28;20205;-71
2020/12/26 00:54:41;;;;;;;16.67;13.67;;;-0.40;99.90;;;;;;5044546;28;20987;-72
2020/12/26 00:57:06;;;;;;;19.97;14.03;;;-0.50;99.90;;;;;;5044383;28;20174;-72
2020/12/26 00:59:32;;;;;;;17.10;13.37;;;-0.40;99.90;;;;;;5043445;28;20262;-73
2020/12/26 01:01:57;;;;;;;17.90;13.10;;;-0.40;99.90;;;;;;5045118;28;20181;-73
2020/12/26 01:04:23;;;;;;;16.43;13.50;;;-0.30;99.90;;;;;;5042039;28;20685;-73
2020/12/26 01:06:55;;;;;;;16.17;13.47;;;-0.30;99.90;;;;;;5045980;28;20226;-72
2020/12/26 01:09:24;;;;;;;16.63;12.83;;;-0.30;99.90;;;;;;5049748;28;20612;-72
2020/12/26 01:11:51;;;;;;;18.73;14.10;;;-0.30;99.90;;;;;;5046928;28;20214;-73
2020/12/26 01:14:17;;;;;;;16.07;13.00;;;-0.40;99.90;;;;;;5042069;28;20213;-73
2020/12/26 01:16:43;;;;;;;18.87;14.03;;;-0.50;99.90;;;;;;5041981;28;20180;-73
2020/12/26 01:19:08;;;;;;;18.60;13.83;;;-0.50;99.90;;;;;;5047214;28;20180;-73
2020/12/26 01:21:34;;;;;;;19.23;14.10;;;-0.50;99.90;;;;;;5043060;28;20229;-71
2020/12/26 01:24:00;;;;;;;17.00;14.10;;;-0.50;99.90;;;;;;5041924;28;20237;-73
2020/12/26 01:26:25;;;;;;;15.87;12.70;;;-0.60;99.90;;;;;;5042275;28;20194;-73
2020/12/26 01:28:51;;;;;;;18.13;14.07;;;-0.70;99.90;;;;;;5039976;28;20176;-72
2020/12/26 01:31:16;;;;;;;20.73;14.77;;;-0.70;99.90;;;;;;5028066;28;20186;-72
2020/12/26 01:33:43;;;;;;;22.07;14.83;;;-0.80;99.90;;;;;;5043802;28;20766;-73
2020/12/26 01:36:12;;;;;;;20.80;16.07;;;-0.80;99.90;;;;;;5040436;28;20183;-73
2020/12/26 01:38:39;;;;;;;19.50;15.90;;;-0.80;99.90;;;;;;5044518;28;20164;-72
2020/12/26 01:41:05;;;;;;;23.67;16.47;;;-0.70;99.90;;;;;;5044118;28;20270;-73
2020/12/26 01:43:30;;;;;;;21.50;16.43;;;-0.70;99.90;;;;;;5044034;28;20207;-72
2020/12/26 01:45:56;;;;;;;21.73;15.67;;;-0.70;99.90;;;;;;5048716;28;20194;-72
2020/12/26 01:48:25;;;;;;;19.90;16.10;;;-0.70;99.90;;;;;;5046041;28;20181;-72
2020/12/26 01:50:53;;;;;;;21.30;14.83;;;-0.70;99.90;;;;;;5045406;28;20218;-72
2020/12/26 01:53:19;;;;;;;20.87;15.83;;;-0.70;99.90;;;;;;5043292;28;20257;-72
2020/12/26 01:55:47;;;;;;;20.17;14.63;;;-0.80;99.90;;;;;;5040553;28;20214;-73
2020/12/26 01:58:14;;;;;;;20.67;14.93;;;-0.80;99.90;;;;;;5038164;28;20213;-75
2020/12/26 02:00:41;;;;;;;21.10;15.87;;;-0.70;99.90;;;;;;5045803;28;20271;-72
2020/12/26 02:03:07;;;;;;;22.27;15.67;;;-0.80;99.90;;;;;;5044850;28;20261;-71
2020/12/26 02:05:33;;;;;;;23.43;17.27;;;-0.70;99.90;;;;;;5027665;28;20180;-72
2020/12/26 02:07:59;;;;;;;22.00;16.47;;;-0.80;99.90;;;;;;5044783;28;20197;-71
2020/12/26 02:10:25;;;;;;;25.60;17.33;;;-0.70;99.90;;;;;;5042410;28;20188;-71
2020/12/26 02:13:18;;;;;;;24.27;18.27;;;-0.70;99.90;;;;;;5042416;28;20277;-73
2020/12/26 02:15:43;;;;;;;23.43;16.40;;;-0.70;99.90;;;;;;5012937;28;20179;-72
2020/12/26 02:18:09;;;;;;;22.47;16.87;;;-0.70;99.90;;;;;;5053547;28;20265;-73
2020/12/26 02:20:35;;;;;;;29.97;18.37;;;-0.70;99.90;;;;;;5048121;28;20185;-71
2020/12/26 02:23:03;;;;;;;25.03;17.57;;;-0.70;99.90;;;;;;5037882;28;20218;-72
2020/12/26 02:25:29;;;;;;;30.57;19.13;;;-0.70;99.90;;;;;;5046073;28;20177;-71
2020/12/26 02:27:55;;;;;;;29.47;19.23;;;-0.70;99.90;;;;;;5040139;28;20674;-73
2020/12/26 02:30:21;;;;;;;31.00;19.43;;;-0.70;99.90;;;;;;5023444;28;20191;-72
2020/12/26 02:32:47;;;;;;;31.67;18.30;;;-0.60;99.90;;;;;;5046102;28;20682;-72
2020/12/26 02:35:12;;;;;;;24.80;19.80;;;-0.50;99.90;;;;;;5038993;28;20266;-72
2020/12/26 02:37:38;;;;;;;24.03;17.93;;;-0.40;99.90;;;;;;5038506;28;20184;-72
2020/12/26 02:40:04;;;;;;;25.60;18.73;;;-0.30;99.90;;;;;;5044999;28;20179;-72
2020/12/26 02:42:29;;;;;;;26.30;16.80;;;-0.20;99.90;;;;;;5038264;28;20215;-72
2020/12/26 02:44:56;;;;;;;20.87;16.00;;;-0.10;99.90;;;;;;5039759;28;20187;-71
2020/12/26 02:47:21;;;;;;;23.47;15.47;;;0.00;99.90;;;;;;5040639;28;20729;-72
2020/12/26 02:49:47;;;;;;;22.97;15.40;;;0.00;99.90;;;;;;5038909;28;20195;-72
2020/12/26 02:52:13;;;;;;;24.10;16.03;;;0.10;99.90;;;;;;5039739;28;20208;-74
2020/12/26 02:54:38;;;;;;;23.03;15.27;;;0.10;99.90;;;;;;5039044;28;20176;-72
2020/12/26 02:57:04;;;;;;;27.90;16.50;;;0.10;99.90;;;;;;5045405;28;20268;-73
2020/12/26 02:59:29;;;;;;;20.87;15.10;;;0.20;99.90;;;;;;5022408;28;20183;-72
2020/12/26 03:01:55;;;;;;;29.47;17.07;;;0.20;99.90;;;;;;5039992;28;20177;-72
2020/12/26 03:04:21;;;;;;;23.83;16.07;;;0.30;99.90;;;;;;5044492;28;20213;-73
2020/12/26 03:06:46;;;;;;;22.57;15.67;;;0.30;99.90;;;;;;5023052;28;20187;-72
2020/12/26 03:09:12;;;;;;;20.63;16.17;;;0.30;99.90;;;;;;5047512;28;20679;-72
2020/12/26 03:11:38;;;;;;;19.87;15.30;;;0.40;99.90;;;;;;5041188;28;20244;-72
2020/12/26 03:14:04;;;;;;;24.03;16.60;;;0.40;99.90;;;;;;5043060;28;20188;-71
2020/12/26 03:16:29;;;;;;;21.13;15.60;;;0.40;99.90;;;;;;5038134;28;20225;-72
2020/12/26 03:18:55;;;;;;;23.00;16.53;;;0.40;99.90;;;;;;5044375;28;20190;-73
2020/12/26 03:21:20;;;;;;;23.47;16.73;;;0.40;99.90;;;;;;5041483;28;20179;-70
2020/12/26 03:23:46;;;;;;;22.43;16.67;;;0.50;99.90;;;;;;5049937;28;20207;-74
2020/12/26 03:26:12;;;;;;;25.63;17.17;;;0.50;99.90;;;;;;5045482;28;20187;-73
2020/12/26 03:28:37;;;;;;;27.47;15.50;;;0.60;99.90;;;;;;5039651;28;20186;-72
2020/12/26 03:31:04;;;;;;;24.77;15.70;;;0.60;99.90;;;;;;5042865;28;20215;-72
2020/12/26 03:33:30;;;;;;;26.57;15.93;;;0.60;99.90;;;;;;5043744;28;20212;-72
2020/12/26 03:35:55;;;;;;;24.43;16.57;;;0.60;99.90;;;;;;5046085;28;20190;-72
2020/12/26 03:38:21;;;;;;;22.23;15.67;;;0.60;99.90;;;;;;5042358;28;20188;-73
2020/12/26 03:40:46;;;;;;;27.47;16.50;;;0.60;99.90;;;;;;5027732;28;20215;-71
2020/12/26 03:43:12;;;;;;;26.33;16.03;;;0.50;99.90;;;;;;5038583;28;20702;-71
2020/12/26 03:45:38;;;;;;;26.97;16.30;;;0.50;99.90;;;;;;5042149;28;20176;-72
2020/12/26 03:48:03;;;;;;;23.60;16.30;;;0.50;99.90;;;;;;5037547;28;20194;-74
2020/12/26 03:50:29;;;;;;;26.67;16.30;;;0.40;99.90;;;;;;5039386;28;20184;-72
2020/12/26 03:52:55;;;;;;;24.63;16.53;;;0.40;99.90;;;;;;5041233;28;20220;-73
2020/12/26 03:55:20;;;;;;;21.90;16.03;;;0.40;99.90;;;;;;5043515;28;20573;-72
2020/12/26 03:57:46;;;;;;;23.53;15.67;;;0.40;99.90;;;;;;5041237;28;20179;-71
2020/12/26 04:00:11;;;;;;;23.13;16.20;;;0.40;99.90;;;;;;5045849;28;20176;-74
2020/12/26 04:02:37;;;;;;;23.87;15.73;;;0.40;99.90;;;;;;5067827;28;20206;-72
2020/12/26 04:05:03;;;;;;;21.87;15.33;;;0.40;99.90;;;;;;5059231;28;20195;-73
2020/12/26 04:07:28;;;;;;;20.77;15.93;;;0.40;99.90;;;;;;5048148;28;20207;-73
2020/12/26 04:09:54;;;;;;;25.30;16.20;;;0.40;99.90;;;;;;5039323;28;20191;-72
2020/12/26 04:12:19;;;;;;;27.40;15.63;;;0.30;99.90;;;;;;5042979;28;20231;-72
2020/12/26 04:14:45;;;;;;;24.50;16.17;;;0.30;99.90;;;;;;5044446;28;20602;-72
2020/12/26 04:17:10;;;;;;;26.80;15.67;;;0.30;99.90;;;;;;5049701;28;20198;-73
2020/12/26 04:19:36;;;;;;;23.87;15.53;;;0.30;99.90;;;;;;5048666;28;20186;-72
2020/12/26 04:22:02;;;;;;;28.53;16.60;;;0.40;99.90;;;;;;5043644;28;20244;-71
2020/12/26 04:24:27;;;;;;;24.30;16.47;;;0.40;99.90;;;;;;5047369;28;20183;-73
2020/12/26 04:26:53;;;;;;;26.63;16.23;;;0.40;99.90;;;;;;5028524;28;20180;-73
2020/12/26 04:29:21;;;;;;;23.53;15.83;;;0.40;99.90;;;;;;5043626;28;20916;-73
2020/12/26 04:31:49;;;;;;;22.37;15.47;;;0.40;99.90;;;;;;5041268;28;20287;-73
2020/12/26 04:34:14;;;;;;;27.63;16.73;;;0.40;99.90;;;;;;5040775;28;20215;-73
2020/12/26 04:36:40;;;;;;;26.13;17.07;;;0.50;99.90;;;;;;5043296;28;20594;-73
2020/12/26 04:39:05;;;;;;;26.27;16.73;;;0.50;99.90;;;;;;5053617;28;20242;-76
2020/12/26 04:41:31;;;;;;;25.63;16.80;;;0.50;99.90;;;;;;5039056;28;20192;-71
2020/12/26 04:43:57;;;;;;;26.77;16.20;;;0.50;99.90;;;;;;5041506;28;20208;-72
2020/12/26 04:46:26;;;;;;;25.33;15.00;;;0.50;99.90;;;;;;5019262;28;20195;-72
2020/12/26 04:49:21;;;;;;;28.33;18.98;;;0.50;99.90;;;;;;5046414;28;20469;-73
2020/12/26 04:51:50;;;;;;;24.27;15.30;;;0.50;99.90;;;;;;4997850;28;20288;-73
2020/12/26 04:54:24;;;;;;;25.23;16.23;;;0.50;99.90;;;;;;4989029;28;20255;-73
2020/12/26 04:56:53;;;;;;;26.23;16.53;;;0.50;99.90;;;;;;5000182;28;20199;-73
2020/12/26 04:59:19;;;;;;;25.50;15.73;;;0.40;99.90;;;;;;5003958;28;20192;-73
2020/12/26 05:01:47;;;;;;;24.43;16.33;;;0.40;99.90;;;;;;5006866;28;20209;-74
2020/12/26 05:04:13;;;;;;;22.73;16.37;;;0.40;99.90;;;;;;5007333;28;20284;-72
2020/12/26 05:06:47;;;;;;;24.97;16.67;;;0.40;99.90;;;;;;5004345;28;20252;-73
2020/12/26 05:09:15;;;;;;;22.47;15.73;;;0.40;99.90;;;;;;5004257;28;20738;-72
2020/12/26 05:11:48;;;;;;;24.17;16.40;;;0.40;99.90;;;;;;4997583;28;20177;-73
2020/12/26 05:14:16;;;;;;;22.77;15.60;;;0.50;99.90;;;;;;4997328;28;20748;-73
2020/12/26 05:16:42;;;;;;;22.53;15.77;;;0.50;99.90;;;;;;5000264;28;20680;-72
2020/12/26 05:19:08;;;;;;;23.63;15.63;;;0.50;99.90;;;;;;5003424;28;20315;-74
2020/12/26 05:21:34;;;;;;;26.40;16.47;;;0.50;99.90;;;;;;5005979;28;20186;-73
2020/12/26 05:24:18;;;;;;;23.20;15.30;;;0.50;99.90;;;;;;4999920;28;20221;-72
2020/12/26 05:26:48;;;;;;;25.77;14.77;;;0.50;99.90;;;;;;5004006;28;20194;-73
2020/12/26 05:29:15;;;;;;;21.30;15.37;;;0.50;99.90;;;;;;5034743;28;20186;-73
2020/12/26 05:31:56;;;;;;;23.60;15.00;;;0.50;99.90;;;;;;5043696;28;20267;-73
2020/12/26 05:34:32;;;;;;;21.37;14.07;;;0.50;99.90;;;;;;5043115;28;20207;-72
2020/12/26 05:37:02;;;;;;;22.43;15.20;;;0.40;99.90;;;;;;5040705;28;20190;-73
2020/12/26 05:39:38;;;;;;;20.50;14.20;;;0.40;99.90;;;;;;5046351;28;20186;-73
2020/12/26 05:42:05;;;;;;;20.23;15.43;;;0.30;99.90;;;;;;5039532;28;20184;-75
2020/12/26 05:44:35;;;;;;;24.90;16.27;;;0.20;99.90;;;;;;5033621;28;20561;-75
2020/12/26 05:47:03;;;;;;;20.80;15.07;;;0.30;99.90;;;;;;5042129;28;20190;-75
2020/12/26 05:49:34;;;;;;;23.10;16.00;;;0.30;99.90;;;;;;5042955;28;20237;-74
2020/12/26 05:52:09;;;;;;;21.40;15.13;;;0.30;99.90;;;;;;5043285;28;20852;-75
2020/12/26 05:54:36;;;;;;;22.33;15.97;;;0.20;99.90;;;;;;5022009;28;20205;-76
2020/12/26 05:57:10;;;;;;;22.10;16.17;;;0.20;99.90;;;;;;5042227;28;20185;-73
2020/12/26 05:59:37;;;;;;;23.87;15.87;;;0.20;99.90;;;;;;5040460;28;20255;-72
2020/12/26 06:02:30;;;;;;;19.97;14.30;;;0.30;99.90;;;;;;5042546;28;20221;-73
2020/12/26 06:05:00;;;;;;;26.60;17.00;;;0.30;99.90;;;;;;5034190;28;20195;-75
2020/12/26 06:07:28;;;;;;;23.23;15.70;;;0.20;99.90;;;;;;5044153;28;20176;-75
2020/12/26 06:09:56;;;;;;;26.00;16.47;;;0.10;99.90;;;;;;5035798;28;20270;-74
2020/12/26 06:12:23;;;;;;;23.30;15.30;;;0.10;99.90;;;;;;5039706;28;20655;-72
2020/12/26 06:14:50;;;;;;;22.73;16.17;;;0.10;99.90;;;;;;5034709;28;20196;-73
2020/12/26 06:17:21;;;;;;;25.27;16.33;;;0.00;99.90;;;;;;5041285;28;20197;-74
2020/12/26 06:19:55;;;;;;;23.13;15.70;;;0.00;99.90;;;;;;5049842;28;20685;-73
2020/12/26 06:22:21;;;;;;;26.83;17.03;;;-0.10;99.90;;;;;;5041257;28;20241;-73
2020/12/26 06:24:47;;;;;;;25.37;16.07;;;-0.10;99.90;;;;;;5034456;28;20310;-73
2020/12/26 06:27:14;;;;;;;25.13;16.50;;;-0.10;99.90;;;;;;5042320;28;20182;-73
2020/12/26 06:29:42;;;;;;;28.17;16.40;;;-0.10;99.90;;;;;;5042577;28;20195;-73
2020/12/26 06:32:09;;;;;;;24.80;16.50;;;-0.10;99.90;;;;;;5042805;28;20199;-73
2020/12/26 06:34:38;;;;;;;28.27;16.97;;;-0.20;99.90;;;;;;5049694;28;20949;-74
2020/12/26 06:37:04;;;;;;;27.63;16.23;;;-0.30;99.90;;;;;;5044639;28;20567;-74
2020/12/26 06:39:32;;;;;;;27.13;15.77;;;-0.30;99.90;;;;;;5049727;28;20182;-74
2020/12/26 06:42:18;;;;;;;25.03;15.87;;;-0.30;99.90;;;;;;5041128;28;20328;-74
2020/12/26 06:44:46;;;;;;;25.07;15.80;;;-0.40;99.90;;;;;;5035928;28;20247;-74
2020/12/26 06:47:36;;;;;;;22.77;16.17;;;-0.40;99.90;;;;;;5044251;28;20191;-74
2020/12/26 06:50:28;;;;;;;25.67;16.57;;;-0.40;99.90;;;;;;5041789;28;20285;-73
2020/12/26 06:52:53;;;;;;;28.37;17.80;;;-0.50;99.90;;;;;;5039631;28;20221;-75
2020/12/26 06:55:42;;;;;;;29.43;18.50;;;-0.50;99.90;;;;;;5022196;28;20177;-76
2020/12/26 06:58:29;;;;;;;27.63;18.17;;;-0.50;99.90;;;;;;5045168;28;20186;-73
2020/12/26 07:00:54;;;;;;;26.57;18.27;;;-0.60;99.90;;;;;;5039267;28;20188;-73
2020/12/26 07:03:24;;;;;;;25.73;18.07;;;-0.60;99.90;;;;;;5047655;28;20255;-75
2020/12/26 07:05:52;;;;;;;24.00;16.83;;;-0.60;99.90;;;;;;5040950;28;20183;-75
2020/12/26 07:08:28;;;;;;;24.80;16.63;;;-0.50;99.90;;;;;;5043505;28;20184;-76
2020/12/26 07:10:55;;;;;;;26.27;16.13;;;-0.50;99.90;;;;;;5045406;28;20211;-76
2020/12/26 07:13:44;;;;;;;24.67;15.30;;;-0.40;99.90;;;;;;5041885;28;20251;-75
2020/12/26 07:16:34;;;;;;;20.20;14.07;;;-0.40;99.90;;;;;;5038969;28;20191;-76
2020/12/26 07:19:19;;;;;;;20.93;15.03;;;-0.40;99.90;;;;;;5029192;28;20181;-74
2020/12/26 07:21:48;;;;;;;23.57;15.33;;;-0.30;99.90;;;;;;5020961;28;20225;-74
2020/12/26 07:24:17;;;;;;;22.20;14.57;;;-0.30;99.90;;;;;;5039776;28;20199;-77
2020/12/26 07:26:43;;;;;;;25.00;15.53;;;-0.30;99.90;;;;;;5022172;28;20184;-77
2020/12/26 07:29:28;;;;;;;19.47;14.83;;;-0.30;99.90;;;;;;5045766;28;20194;-75
2020/12/26 07:31:54;;;;;;;23.67;14.33;;;-0.20;99.90;;;;;;5053187;28;20185;-75
2020/12/26 07:34:36;;;;;;;24.10;14.53;;;-0.20;99.90;;;;;;5047360;28;20207;-76
2020/12/26 07:37:02;;;;;;;20.77;14.87;;;-0.10;99.90;;;;;;5045354;28;20171;-76
2020/12/26 07:39:28;;;;;;;21.20;14.07;;;-0.10;99.90;;;;;;5040043;28;20266;-75
2020/12/26 07:41:56;;;;;;;17.50;12.97;;;0.10;99.90;;;;;;5034807;28;20285;-75
2020/12/26 07:44:27;;;;;;;22.00;13.27;;;0.20;99.90;;;;;;5040960;28;20571;-76
2020/12/26 07:46:55;;;;;;;17.20;13.63;;;0.40;99.90;;;;;;5039111;28;20276;-76
2020/12/26 07:49:21;;;;;;;18.63;13.47;;;0.50;99.90;;;;;;5044205;28;20185;-76
2020/12/26 07:52:06;;;;;;;17.33;13.20;;;0.60;99.90;;;;;;5045251;28;20190;-75
2020/12/26 07:54:32;;;;;;;17.30;11.83;;;0.80;99.90;;;;;;5044800;28;20187;-74
2020/12/26 07:56:58;;;;;;;16.33;12.30;;;1.10;99.90;;;;;;5039683;28;20187;-75
2020/12/26 07:59:24;;;;;;;11.20;10.10;;;1.70;99.60;;;;;;5026801;28;20326;-75
2020/12/26 08:01:51;;;;;;;11.00;9.90;;;2.50;97.50;;;;;;5046839;28;20211;-74
2020/12/26 08:04:17;;;;;;;14.10;9.97;;;3.30;94.80;;;;;;5031179;28;20699;-73
2020/12/26 08:06:44;;;;;;;9.77;8.63;;;3.90;92.60;;;;;;5023092;28;20196;-73
2020/12/26 08:09:14;;;;;;;10.50;9.40;;;4.70;89.60;;;;;;5063578;28;20179;-76
2020/12/26 08:11:41;;;;;;;10.00;9.00;;;4.90;87.50;;;;;;5065515;28;20256;-74
2020/12/26 08:14:07;;;;;;;10.33;9.10;;;5.00;84.90;;;;;;5050768;28;20210;-75
2020/12/26 08:16:35;;;;;;;9.37;8.40;;;5.10;84.10;;;;;;5048987;28;20203;-75
2020/12/26 08:19:02;;;;;;;9.83;8.93;;;5.00;84.50;;;;;;5031996;28;20624;-76
2020/12/26 08:21:29;;;;;;;10.03;9.03;;;4.80;86.10;;;;;;5040257;28;20194;-74
2020/12/26 08:23:59;;;;;;;10.40;9.07;;;4.50;87.70;;;;;;5044150;28;20214;-75
2020/12/26 08:26:26;;;;;;;11.10;9.27;;;4.50;87.70;;;;;;5039664;28;20186;-74
2020/12/26 08:28:55;;;;;;;12.90;9.27;;;4.40;89.20;;;;;;5040753;28;20185;-76
2020/12/26 08:31:23;;;;;;;12.40;9.33;;;4.50;90.00;;;;;;5042058;28;20182;-74
2020/12/26 08:34:05;;;;;;;11.10;9.53;;;5.10;85.70;;;;;;5043088;28;20238;-73
2020/12/26 08:36:38;;;;;;;10.47;9.23;;;6.10;80.20;;;;;;5039926;28;20217;-75
2020/12/26 08:39:04;;;;;;;10.37;9.30;;;6.70;74.60;;;;;;5044980;28;20666;-74
2020/12/26 08:41:32;;;;;;;9.63;8.63;;;6.70;72.20;;;;;;5043358;28;20180;-73
2020/12/26 08:43:58;;;;;;;10.57;9.50;;;6.30;75.10;;;;;;5041577;28;20210;-74
2020/12/26 08:46:25;;;;;;;10.50;9.33;;;6.10;75.50;;;;;;5033579;28;20190;-74
2020/12/26 08:48:52;;;;;;;10.07;9.00;;;5.70;78.30;;;;;;5048340;28;20262;-74
2020/12/26 08:51:22;;;;;;;10.33;9.23;;;5.40;79.40;;;;;;5042123;28;20254;-75
2020/12/26 08:53:49;;;;;;;9.60;8.63;;;5.60;79.90;;;;;;5043438;28;20286;-75
2020/12/26 08:56:15;;;;;;;10.47;8.83;;;5.60;79.50;;;;;;5046323;28;20168;-74
2020/12/26 08:58:49;;;;;;;9.50;8.60;;;6.00;77.70;;;;;;5051244;28;20191;-74
2020/12/26 09:01:15;;;;;;;12.60;9.33;;;6.20;75.90;;;;;;5023136;28;20182;-75
2020/12/26 09:03:47;;;;;;;9.53;8.53;;;7.00;71.90;;;;;;5049863;28;20554;-74
2020/12/26 09:06:13;;;;;;;8.97;8.03;;;7.80;67.90;;;;;;5040487;28;20601;-74
2020/12/26 09:08:39;;;;;;;10.60;8.57;;;8.40;63.70;;;;;;5036278;28;20211;-74
2020/12/26 09:11:12;;;;;;;8.87;7.97;;;8.50;62.80;;;;;;5044296;28;20183;-74
2020/12/26 09:13:39;;;;;;;8.93;8.03;;;9.00;60.90;;;;;;5039740;28;20277;-74
2020/12/26 09:16:12;;;;;;;11.93;7.90;;;9.30;59.00;;;;;;5044810;28;20176;-74
2020/12/26 09:18:49;;;;;;;10.20;7.77;;;9.40;57.90;;;;;;5037819;28;20216;-74
2020/12/26 09:21:25;;;;;;;8.73;7.83;;;9.30;58.70;;;;;;5040871;28;20202;-74
2020/12/26 09:23:52;;;;;;;9.30;8.20;;;9.70;58.50;;;;;;5041787;28;20199;-72
2020/12/26 09:26:23;;;;;;;503.83;242.47;;;9.50;57.70;;;;;;5039670;28;20191;-72
2020/12/26 09:29:01;;;;;;;15.68;12.43;;;9.50;60.00;;;;;;5047102;28;20184;-72
2020/12/26 09:31:37;;;;;;;10.57;9.57;;;9.60;57.70;;;;;;5052438;28;20203;-72
2020/12/26 09:34:16;;;;;;;9.80;8.27;;;9.50;57.10;;;;;;5054395;28;20206;-72
2020/12/26 09:36:43;;;;;;;10.13;7.60;;;9.50;57.60;;;;;;5060950;28;20176;-72
2020/12/26 09:39:08;;;;;;;7.82;7.07;;;9.00;57.50;;;;;;5064345;28;20254;-72
2020/12/26 09:41:48;;;;;;;8.60;7.63;;;8.50;58.10;;;;;;5047433;28;20216;-72
2020/12/26 09:44:15;;;;;;;9.23;7.67;;;8.30;59.60;;;;;;5044690;28;20286;-72
2020/12/26 09:46:42;;;;;;;8.60;7.67;;;7.80;61.10;;;;;;5028193;28;20183;-72
2020/12/26 09:49:08;;;;;;;8.40;7.37;;;7.50;63.00;;;;;;5034595;28;20188;-72
2020/12/26 09:51:34;;;;;;;7.70;7.00;;;7.40;64.60;;;;;;5044100;28;20176;-72
2020/12/26 09:54:00;;;;;;;8.40;7.60;;;7.20;65.90;;;;;;5037677;28;20243;-73
2020/12/26 09:56:26;;;;;;;9.00;7.10;;;7.80;64.70;;;;;;5045945;28;20181;-72
2020/12/26 09:58:52;;;;;;;7.67;6.93;;;8.20;62.80;;;;;;5027782;28;20181;-72
2020/12/26 10:01:19;;;;;;;11.30;7.40;;;8.50;61.20;;;;;;5049139;28;20188;-73
2020/12/26 10:03:46;;;;;;;7.73;7.03;;;9.00;59.90;;;;;;5042528;28;20208;-72
2020/12/26 10:06:16;;;;;;;6.60;5.70;;;9.70;58.10;;;;;;5044807;28;20191;-73
2020/12/26 10:08:43;;;;;;;8.70;6.13;;;10.20;55.70;;;;;;5049655;28;20233;-72
2020/12/26 10:11:10;;;;;;;9.23;6.13;;;10.50;54.90;;;;;;5036181;28;20176;-72
2020/12/26 10:13:36;;;;;;;7.00;6.40;;;10.60;53.90;;;;;;5040626;28;20219;-73
2020/12/26 10:16:01;;;;;;;6.70;5.80;;;10.10;54.50;;;;;;5039058;28;20184;-73
2020/12/26 10:18:27;;;;;;;7.22;6.45;;;10.40;54.60;;;;;;5045401;28;20187;-73
2020/12/26 10:20:52;;;;;;;7.83;6.37;;;10.20;54.80;;;;;;5042380;28;20321;-73
2020/12/26 10:23:18;;;;;;;6.43;5.82;;;10.50;54.30;;;;;;5045731;28;20212;-73
2020/12/26 10:25:43;;;;;;;7.28;6.32;;;10.80;53.20;;;;;;5037445;28;20729;-73
2020/12/26 10:28:09;;;;;;;9.90;6.38;;;11.10;52.10;;;;;;5043249;28;20546;-73
2020/12/26 10:30:35;;;;;;;8.95;6.97;;;11.30;52.30;;;;;;5040182;28;20192;-73
2020/12/26 10:33:01;;;;;;;8.43;6.47;;;11.90;51.30;;;;;;5047181;28;20272;-74
2020/12/26 10:35:27;;;;;;;10.80;8.55;;;11.50;51.50;;;;;;5052145;28;20262;-73
2020/12/26 10:37:52;;;;;;;7.00;6.05;;;11.60;52.20;;;;;;5044600;28;20181;-73
2020/12/26 10:40:18;;;;;;;6.78;6.05;;;11.60;50.40;;;;;;5042598;28;20192;-73
2020/12/26 10:42:44;;;;;;;6.68;5.53;;;11.80;50.70;;;;;;5041021;28;20237;-73
2020/12/26 10:45:09;;;;;;;5.80;5.25;;;11.80;49.40;;;;;;5030412;28;20269;-72
2020/12/26 10:47:35;;;;;;;6.25;5.60;;;11.00;50.70;;;;;;5042790;28;20195;-72
2020/12/26 10:50:00;;;;;;;6.57;4.93;;;10.40;52.20;;;;;;5046671;28;20192;-73
2020/12/26 10:52:26;;;;;;;8.70;6.07;;;10.30;52.40;;;;;;5046985;28;20221;-72
2020/12/26 10:54:52;;;;;;;6.70;5.05;;;9.80;53.40;;;;;;5024014;28;20184;-72
2020/12/26 10:57:17;;;;;;;5.30;4.80;;;8.90;55.60;;;;;;5049426;28;20284;-74
2020/12/26 10:59:43;;;;;;;6.43;5.03;;;8.20;56.50;;;;;;5044773;28;20199;-72
2020/12/26 11:02:09;;;;;;;5.43;4.93;;;8.10;57.70;;;;;;5041337;28;20259;-72
2020/12/26 11:04:34;;;;;;;5.50;4.70;;;8.10;56.70;;;;;;5040585;28;20195;-71
2020/12/26 11:07:00;;;;;;;5.60;4.70;;;7.80;57.50;;;;;;5030443;28;20185;-74
2020/12/26 11:09:26;;;;;;;5.20;4.70;;;7.80;57.80;;;;;;5026260;28;20172;-74
2020/12/26 11:11:52;;;;;;;4.97;4.53;;;8.40;56.90;;;;;;5036487;28;20527;-72
2020/12/26 11:14:19;;;;;;;4.13;3.73;;;9.90;54.50;;;;;;5042329;28;20598;-71
2020/12/26 11:16:51;;;;;;;5.00;4.03;;;11.30;49.70;;;;;;5038089;28;20186;-73
2020/12/26 11:19:17;;;;;;;5.53;4.18;;;11.80;47.20;;;;;;5043888;28;20183;-73
2020/12/26 11:21:44;;;;;;;4.75;4.28;;;11.70;47.40;;;;;;5028463;28;20175;-76
2020/12/26 11:24:11;;;;;;;3.80;3.40;;;11.30;47.50;;;;;;5042608;28;20199;-75
2020/12/26 11:26:37;;;;;;;5.43;4.05;;;10.30;49.20;;;;;;5042289;28;20183;-75
2020/12/26 11:29:03;;;;;;;4.55;3.80;;;10.90;48.90;;;;;;5039021;28;20183;-75
2020/12/26 11:31:29;;;;;;;6.20;3.75;;;11.50;46.60;;;;;;5038502;28;20179;-74
2020/12/26 11:33:54;;;;;;;4.03;3.63;;;11.40;46.20;;;;;;5040384;28;20203;-74
2020/12/26 11:36:22;;;;;;;4.10;3.70;;;11.00;47.00;;;;;;5031488;28;20673;-74
2020/12/26 11:38:51;;;;;;;4.28;3.72;;;10.80;48.20;;;;;;5034404;28;20271;-77
2020/12/26 11:41:23;;;;;;;4.47;3.80;;;10.50;48.10;;;;;;5034194;28;20659;-75
2020/12/26 11:43:48;;;;;;;5.07;3.85;;;9.90;49.70;;;;;;5038610;28;20251;-75
2020/12/26 11:46:14;;;;;;;6.20;4.35;;;9.70;50.50;;;;;;5037363;28;20705;-76
2020/12/26 11:48:40;;;;;;;5.33;4.70;;;9.40;52.20;;;;;;5038697;28;20717;-75
2020/12/26 11:51:07;;;;;;;5.57;4.90;;;8.70;54.40;;;;;;5024979;28;20180;-73
2020/12/26 11:53:33;;;;;;;5.53;5.00;;;8.40;56.20;;;;;;5042821;28;20217;-73
2020/12/26 11:55:59;;;;;;;5.17;4.00;;;8.60;55.10;;;;;;5038394;28;20251;-74
2020/12/26 11:58:26;;;;;;;5.67;5.17;;;8.40;54.90;;;;;;5040103;28;20184;-75
2020/12/26 12:00:54;;;;;;;5.63;4.70;;;7.90;56.40;;;;;;5039080;28;20173;-74
2020/12/26 12:03:20;;;;;;;6.80;4.80;;;8.10;56.30;;;;;;5034678;28;20287;-74
2020/12/26 12:05:46;;;;;;;6.03;5.43;;;8.80;55.80;;;;;;5020204;28;20678;-75
2020/12/26 12:08:13;;;;;;;5.37;4.87;;;9.60;53.60;;;;;;5041262;28;20279;-75
2020/12/26 12:10:39;;;;;;;4.90;4.47;;;9.90;52.90;;;;;;5018790;28;20184;-75
2020/12/26 12:13:06;;;;;;;5.55;4.32;;;11.10;50.60;;;;;;5034879;28;20234;-73
2020/12/26 12:15:32;;;;;;;6.80;4.18;;;11.50;48.90;;;;;;5032596;28;20188;-76
2020/12/26 12:18:00;;;;;;;4.88;4.43;;;11.20;48.90;;;;;;5038145;28;20257;-75
2020/12/26 12:20:30;;;;;;;4.97;4.53;;;9.90;50.90;;;;;;5038282;28;20252;-76
2020/12/26 12:22:56;;;;;;;5.10;4.60;;;9.50;52.40;;;;;;5020650;28;20203;-74
2020/12/26 12:25:23;;;;;;;5.93;5.17;;;9.50;52.30;;;;;;5042734;28;20236;-74
2020/12/26 12:27:49;;;;;;;7.23;4.63;;;9.40;52.90;;;;;;5047156;28;20183;-72
2020/12/26 12:30:15;;;;;;;6.05;4.97;;;9.80;52.00;;;;;;5046478;28;20734;-75
2020/12/26 12:32:41;;;;;;;5.55;3.90;;;9.90;52.30;;;;;;5048829;28;20238;-73
2020/12/26 12:35:06;;;;;;;5.30;4.50;;;9.30;51.50;;;;;;5050984;28;20657;-74
2020/12/26 12:37:32;;;;;;;6.30;4.80;;;8.70;52.50;;;;;;5046116;28;20210;-74
2020/12/26 12:39:58;;;;;;;5.10;4.10;;;7.80;54.50;;;;;;5043124;28;20200;-74
2020/12/26 12:42:27;;;;;;;6.10;4.40;;;7.30;55.40;;;;;;5044905;28;20188;-74